首页
METAR-TAF:

METAR-TAF

机场 :

赤塔機場

赤塔, 俄罗斯

纬度: 52-05N, 经度: 113-29E, 海拔: 685米

当前天气观测

该预报发布于28分钟前的21:00 UTC
风速8节,风向西南
温度 -2°C
湿度 74%
气压 1009 hPa
能见度10公里或以上
散云层高于4000英尺

METAR: UIAA 222100Z 23004MPS 9999 SCT040 M02/M06 Q1009 R29/70D NOSIG RMK QFE698/0931

时间: 06:28 (21:28 UTC)

预报

该预报发布于1小时和28分钟前的20:00 UTC
预报有效从22日的 21点(UTC)到 23日的 21点(UTC)
风速6节,风向西转西南,有时为17节阵风
能见度10公里或以上
散云层高于3000英尺, 积雨云.

TAF: UIAA 222000Z 2221/2321 25003G09MPS 9999 SCT030CB

超过4000个机场的气象观测和天气预报(METAR&TAF报告)。

可查询的气象台以黄色和红色小点在地图上表示。

将鼠标移到小点上方,可查看气象台名称。

然后点击查看天气观测和预报。

如需切换地图:点击带黑十字的绿色按钮放大地图;点击带横线的绿色按钮缩小地图;或者点击绿色箭头查看邻近地区的地图。


METAR-TAF: